Argos, Greece
Current Conditions -  °F | °C
As of 4:20 PM on Saturday 22 Nov 2014 (Local Time) from LGEL Reporting Station
Scattered Clouds Scattered Clouds  
Wind Chill: 59°   Ceiling: Unl
Heat Index: 59°   Visibility: 6mi
Dew Point: 36°   Wind: 6mph
Humidity: 42%   Direction: 340°NNW
Pressure: 30.18"   Gusts: NA
Location:  37.63°N, 22.73°E
Report Text: LGEL 221420Z 34005KT 9999 FEW030 SCT180 15/02 Q1022
Loading
Personal Weather Stations






























Interactive Weather Map New forecast layout! Learn more

10-Day Weather Forecast

Advertisements
Track Severe Weather on mobile